createdAt,value
2022-08-01T00:01:34.348Z,1.33
2022-08-01T00:04:03.039Z,1.10
2022-08-01T00:06:31.429Z,1.30
2022-08-01T00:08:59.798Z,1.40
2022-08-01T00:11:28.239Z,1.30
2022-08-01T00:13:56.547Z,1.20
2022-08-01T00:16:24.869Z,1.20
2022-08-01T00:18:55.731Z,0.70
2022-08-01T00:21:24.242Z,1.13
2022-08-01T00:23:52.550Z,1.00
2022-08-01T00:26:20.962Z,1.10
2022-08-01T00:28:49.273Z,1.20
2022-08-01T00:31:17.611Z,1.10
2022-08-01T00:33:45.920Z,1.00
2022-08-01T00:36:15.606Z,1.00
2022-08-01T00:38:43.890Z,1.05
2022-08-01T00:41:12.449Z,0.88
2022-08-01T00:43:40.782Z,1.47
2022-08-01T00:46:09.297Z,0.67
2022-08-01T00:48:37.710Z,1.17
2022-08-01T00:51:07.191Z,0.68
2022-08-01T00:53:50.677Z,1.02
2022-08-01T00:56:21.473Z,0.60
2022-08-01T00:58:50.401Z,1.05
2022-08-01T01:01:19.144Z,1.10
2022-08-01T01:04:03.048Z,0.80
2022-08-01T01:06:46.706Z,0.95
2022-08-01T01:09:27.631Z,1.20
2022-08-01T01:12:21.988Z,0.63
2022-08-01T01:14:58.886Z,0.65
2022-08-01T01:17:51.353Z,1.30
2022-08-01T01:20:23.731Z,1.20
2022-08-01T01:23:17.886Z,1.10
2022-08-01T01:26:10.870Z,1.70
2022-08-01T01:29:15.564Z,1.50
2022-08-01T01:31:49.924Z,1.80
2022-08-01T01:34:21.163Z,1.50
2022-08-01T01:36:51.897Z,1.33
2022-08-01T01:39:22.618Z,1.75
2022-08-01T01:41:53.514Z,1.30
2022-08-01T01:44:23.193Z,1.27
2022-08-01T01:46:53.714Z,1.20
2022-08-01T01:49:26.455Z,1.40
2022-08-01T01:52:03.847Z,1.70
2022-08-01T01:54:37.632Z,1.05
2022-08-01T01:57:08.853Z,1.60
2022-08-01T01:59:41.507Z,1.30
2022-08-01T02:02:11.518Z,1.05
2022-08-01T02:04:44.610Z,1.60
2022-08-01T02:07:16.593Z,1.42
2022-08-01T02:09:47.063Z,1.60
2022-08-01T02:12:16.421Z,1.17
2022-08-01T02:14:48.188Z,0.60
2022-08-01T02:17:21.988Z,1.50
2022-08-01T02:19:50.733Z,1.42
2022-08-01T02:22:28.001Z,1.20
2022-08-01T02:25:03.411Z,1.35
2022-08-01T02:27:47.932Z,1.00
2022-08-01T02:30:18.744Z,0.90
2022-08-01T02:32:51.096Z,2.15
2022-08-01T02:35:25.522Z,1.97
2022-08-01T02:37:55.071Z,1.13
2022-08-01T02:40:23.889Z,2.08
2022-08-01T02:42:55.503Z,1.10
2022-08-01T02:45:28.888Z,1.60
2022-08-01T02:48:04.179Z,1.17
2022-08-01T02:50:34.396Z,2.10
2022-08-01T02:53:03.952Z,1.45
2022-08-01T02:55:36.169Z,2.25
2022-08-01T02:58:05.122Z,1.63
2022-08-01T03:00:36.644Z,2.10
2022-08-01T03:03:09.029Z,1.40
2022-08-01T03:05:41.028Z,1.40
2022-08-01T03:08:14.725Z,1.60
2022-08-01T03:10:47.869Z,1.20
2022-08-01T03:13:20.072Z,1.23
2022-08-01T03:15:51.494Z,0.70
2022-08-01T03:18:20.734Z,1.63
2022-08-01T03:20:49.388Z,1.42
2022-08-01T03:23:19.301Z,1.48
2022-08-01T03:25:49.637Z,2.58
2022-08-01T03:28:19.311Z,1.65
2022-08-01T03:30:50.864Z,1.73
2022-08-01T03:33:19.353Z,1.25
2022-08-01T03:35:51.724Z,1.27
2022-08-01T03:38:23.635Z,2.00
2022-08-01T03:40:57.895Z,2.70
2022-08-01T03:43:33.791Z,2.00
2022-08-01T03:46:09.453Z,0.77
2022-08-01T03:48:42.811Z,1.30
2022-08-01T03:51:13.404Z,2.05
2022-08-01T03:53:44.610Z,1.50
2022-08-01T03:56:14.830Z,1.17
2022-08-01T03:58:50.079Z,1.38
2022-08-01T04:01:21.568Z,0.80
2022-08-01T04:03:50.520Z,1.88
2022-08-01T04:06:19.082Z,1.60
2022-08-01T04:08:56.698Z,0.80
2022-08-01T04:11:28.281Z,1.50
2022-08-01T04:13:58.302Z,2.72
2022-08-01T04:16:28.694Z,0.50
2022-08-01T04:18:57.078Z,0.50
2022-08-01T04:21:29.759Z,1.70
2022-08-01T04:24:06.289Z,0.50
2022-08-01T04:26:36.866Z,0.97
2022-08-01T04:29:08.766Z,1.50
2022-08-01T04:31:41.418Z,0.93
2022-08-01T04:34:11.468Z,1.10
2022-08-01T04:36:43.048Z,2.73
2022-08-01T04:39:12.606Z,0.90
2022-08-01T04:41:43.513Z,0.70
2022-08-01T04:44:12.189Z,1.15
2022-08-01T04:46:43.238Z,1.83
2022-08-01T04:49:13.180Z,1.20
2022-08-01T04:51:53.269Z,2.17
2022-08-01T04:54:22.551Z,1.95
2022-08-01T04:56:51.500Z,2.47
2022-08-01T04:59:37.556Z,0.60
2022-08-01T05:02:07.666Z,0.50
2022-08-01T05:04:36.491Z,0.60
2022-08-01T05:07:05.243Z,1.05
2022-08-01T05:09:34.297Z,0.60
2022-08-01T05:12:04.207Z,1.85
2022-08-01T05:14:33.753Z,1.60
2022-08-01T05:17:04.204Z,1.70
2022-08-01T05:19:34.904Z,0.77
2022-08-01T05:22:06.007Z,1.60
2022-08-01T05:24:35.248Z,1.20
2022-08-01T05:27:05.468Z,1.60
2022-08-01T05:29:35.856Z,1.73
2022-08-01T05:32:05.188Z,1.45
2022-08-01T05:34:35.405Z,1.95
2022-08-01T05:37:04.082Z,1.70
2022-08-01T05:39:32.575Z,1.08
2022-08-01T05:42:00.893Z,1.00
2022-08-01T05:44:29.237Z,1.70
2022-08-01T05:46:57.711Z,2.27
2022-08-01T05:49:26.110Z,0.75
2022-08-01T05:51:56.134Z,1.35
2022-08-01T05:54:24.486Z,1.13
2022-08-01T05:56:52.783Z,0.90
2022-08-01T05:59:21.625Z,1.30
2022-08-01T06:01:50.542Z,1.13
2022-08-01T06:04:18.876Z,0.80
2022-08-01T06:06:47.204Z,1.83
2022-08-01T06:09:16.879Z,1.27
2022-08-01T06:11:45.220Z,1.30
2022-08-01T06:14:13.526Z,0.98
2022-08-01T06:16:41.878Z,0.50
2022-08-01T06:19:10.194Z,1.00
2022-08-01T06:21:38.528Z,0.70
2022-08-01T06:24:07.373Z,1.02
2022-08-01T06:26:38.105Z,1.00
2022-08-01T06:29:06.402Z,1.77
2022-08-01T06:31:34.814Z,0.60
2022-08-01T06:34:03.132Z,0.52
2022-08-01T06:36:31.469Z,1.00
2022-08-01T06:38:59.768Z,0.88
2022-08-01T06:41:28.169Z,1.20
2022-08-01T06:43:57.835Z,0.70
2022-08-01T06:46:30.315Z,1.70
2022-08-01T06:49:00.879Z,1.13
2022-08-01T06:51:29.243Z,1.00
2022-08-01T06:53:57.583Z,1.38
2022-08-01T06:56:25.989Z,0.70
2022-08-01T06:58:57.290Z,0.70
2022-08-01T07:01:27.125Z,0.40
2022-08-01T07:03:55.600Z,0.83
2022-08-01T07:06:25.305Z,0.40
2022-08-01T07:08:54.127Z,0.75
2022-08-01T07:11:23.234Z,0.95
2022-08-01T07:13:51.945Z,0.50
2022-08-01T07:16:20.317Z,0.90
2022-08-01T07:18:50.028Z,0.50
2022-08-01T07:21:39.943Z,0.40
2022-08-01T07:24:11.965Z,1.37
2022-08-01T07:26:53.961Z,0.77
2022-08-01T07:29:25.194Z,1.00
2022-08-01T07:31:54.940Z,0.80
2022-08-01T07:34:25.920Z,1.05
2022-08-01T07:36:55.058Z,0.50
2022-08-01T07:39:23.366Z,1.20
2022-08-01T07:42:06.554Z,0.55
2022-08-01T07:44:37.295Z,0.70
2022-08-01T07:47:06.408Z,0.85
2022-08-01T07:49:40.326Z,1.15
2022-08-01T07:52:09.903Z,0.82
2022-08-01T07:54:38.971Z,1.05
2022-08-01T07:57:08.207Z,0.70
2022-08-01T07:59:37.318Z,0.90
2022-08-01T08:02:06.280Z,0.68
2022-08-01T08:04:36.610Z,0.68
2022-08-01T08:07:05.975Z,0.63
2022-08-01T08:09:37.987Z,0.73
2022-08-01T08:12:08.113Z,0.82
2022-08-01T08:14:37.173Z,1.05
2022-08-01T08:17:05.995Z,0.70
2022-08-01T08:19:39.049Z,0.75
2022-08-01T08:22:08.968Z,0.60
2022-08-01T08:24:45.635Z,0.70
2022-08-01T08:27:15.801Z,0.88
2022-08-01T08:29:45.025Z,1.08
2022-08-01T08:32:14.412Z,0.80
2022-08-01T08:34:44.671Z,0.90
2022-08-01T08:37:13.880Z,0.55
2022-08-01T08:39:42.735Z,0.77
2022-08-01T08:42:12.313Z,0.70
2022-08-01T08:44:43.432Z,0.93
2022-08-01T08:47:18.987Z,1.00
2022-08-01T08:49:52.340Z,0.90
2022-08-01T08:52:22.389Z,0.60
2022-08-01T08:54:52.453Z,0.40
2022-08-01T08:57:22.740Z,0.70
2022-08-01T08:59:53.072Z,0.40
2022-08-01T09:02:22.128Z,0.70
2022-08-01T09:04:53.497Z,0.50
2022-08-01T09:07:23.878Z,0.52
2022-08-01T09:09:52.950Z,0.40
2022-08-01T09:12:22.484Z,0.60
2022-08-01T09:14:54.484Z,1.10
2022-08-01T09:17:23.699Z,0.63
2022-08-01T09:19:57.734Z,0.60
2022-08-01T09:22:28.031Z,0.40
2022-08-01T09:25:01.357Z,0.50
2022-08-01T09:27:30.575Z,0.70
2022-08-01T09:30:11.774Z,0.60
2022-08-01T09:32:56.598Z,0.50
2022-08-01T09:35:29.931Z,0.60
2022-08-01T09:38:16.306Z,0.80
2022-08-01T09:40:54.076Z,0.60
2022-08-01T09:43:24.712Z,0.70
2022-08-01T09:45:54.976Z,0.82
2022-08-01T09:48:28.417Z,0.50
2022-08-01T09:51:07.310Z,0.60
2022-08-01T09:53:51.112Z,0.60
2022-08-01T09:56:22.727Z,1.00
2022-08-01T09:58:58.868Z,0.70
2022-08-01T10:01:36.066Z,0.40
2022-08-01T10:04:12.547Z,0.40
2022-08-01T10:06:45.342Z,0.30
2022-08-01T10:09:15.290Z,0.30
2022-08-01T10:11:45.485Z,0.60
2022-08-01T10:14:17.724Z,0.45
2022-08-01T10:16:53.687Z,0.50
2022-08-01T10:19:25.446Z,0.32
2022-08-01T10:22:00.509Z,0.40
2022-08-01T10:24:33.401Z,0.50
2022-08-01T10:27:09.009Z,0.40
2022-08-01T10:29:46.674Z,0.40
2022-08-01T10:32:34.274Z,0.40
2022-08-01T10:35:06.766Z,0.40
2022-08-01T10:37:51.839Z,0.47
2022-08-01T10:40:31.012Z,0.63
2022-08-01T10:43:00.846Z,0.53
2022-08-01T10:45:30.902Z,0.30
2022-08-01T10:48:06.727Z,0.50
2022-08-01T10:50:39.541Z,0.47
2022-08-01T10:53:16.081Z,0.52
2022-08-01T10:55:51.278Z,0.30
2022-08-01T10:58:24.620Z,0.40
2022-08-01T11:01:15.818Z,0.40
2022-08-01T11:03:57.524Z,0.50
2022-08-01T11:06:37.457Z,0.30
2022-08-01T11:09:18.910Z,0.40
2022-08-01T11:12:06.253Z,0.38
2022-08-01T11:14:55.375Z,0.45
2022-08-01T11:17:37.809Z,0.40
2022-08-01T11:20:09.559Z,0.30
2022-08-01T11:23:17.787Z,0.30
2022-08-01T11:26:10.895Z,0.40
2022-08-01T11:28:47.058Z,0.40
2022-08-01T11:31:37.920Z,0.40
2022-08-01T11:34:07.236Z,0.40
2022-08-01T11:36:58.511Z,0.50
2022-08-01T11:39:24.598Z,0.30
2022-08-01T11:41:55.697Z,0.30
2022-08-01T11:44:30.259Z,0.20
2022-08-01T11:47:09.102Z,0.30
2022-08-01T11:49:51.766Z,0.30
2022-08-01T11:52:25.601Z,0.40
2022-08-01T11:54:55.872Z,0.27
2022-08-01T11:57:34.292Z,0.30
2022-08-01T12:00:08.328Z,0.22
2022-08-01T12:02:37.745Z,0.10
2022-08-01T12:05:12.154Z,0.35
2022-08-01T12:07:42.303Z,0.20
2022-08-01T12:10:13.060Z,0.50
2022-08-01T12:12:47.278Z,0.20
2022-08-01T12:15:16.112Z,0.30
2022-08-01T12:17:59.029Z,0.30
2022-08-01T12:20:31.696Z,0.30
2022-08-01T12:23:02.775Z,0.30
2022-08-01T12:25:31.467Z,0.30
2022-08-01T12:28:05.182Z,0.30
2022-08-01T12:30:36.423Z,0.22
2022-08-01T12:33:06.519Z,0.50
2022-08-01T12:35:37.415Z,0.30
2022-08-01T12:38:08.419Z,0.30
2022-08-01T12:40:45.286Z,0.38
2022-08-01T12:43:27.103Z,0.35
2022-08-01T12:46:00.075Z,0.40
2022-08-01T12:48:30.121Z,0.30
2022-08-01T12:51:02.124Z,0.20
2022-08-01T12:53:40.751Z,0.30
2022-08-01T12:56:11.338Z,0.40
2022-08-01T12:58:41.840Z,0.17
2022-08-01T13:01:12.566Z,0.30
2022-08-01T13:03:41.854Z,0.10
2022-08-01T13:06:16.264Z,0.50
2022-08-01T13:08:46.649Z,0.30
2022-08-01T13:11:18.315Z,0.40
2022-08-01T13:13:50.439Z,0.30
2022-08-01T13:16:30.469Z,0.20
2022-08-01T13:19:07.878Z,0.43
2022-08-01T13:21:53.608Z,0.52
2022-08-01T13:24:27.872Z,0.30
2022-08-01T13:27:01.725Z,0.40
2022-08-01T13:29:38.807Z,0.20
2022-08-01T13:32:28.972Z,0.22
2022-08-01T13:35:04.978Z,0.50
2022-08-01T13:37:33.652Z,0.28
2022-08-01T13:40:02.375Z,0.40
2022-08-01T13:42:31.318Z,0.30
2022-08-01T13:45:01.344Z,0.30
2022-08-01T13:47:32.696Z,0.40
2022-08-01T13:50:04.080Z,0.70
2022-08-01T13:52:33.039Z,0.40
2022-08-01T13:55:02.209Z,0.38
2022-08-01T13:57:36.942Z,0.50
2022-08-01T14:00:10.316Z,0.40
2022-08-01T14:02:39.006Z,0.45
2022-08-01T14:05:08.709Z,0.43
2022-08-01T14:07:38.141Z,0.65
2022-08-01T14:10:19.398Z,0.60
2022-08-01T14:12:49.636Z,0.90
2022-08-01T14:15:36.722Z,0.50
2022-08-01T14:18:09.591Z,0.43
2022-08-01T14:20:39.232Z,0.40
2022-08-01T14:23:09.035Z,0.30
2022-08-01T14:26:02.978Z,0.30
2022-08-01T14:28:28.938Z,0.80
2022-08-01T14:30:59.431Z,0.50
2022-08-01T14:33:28.840Z,0.70
2022-08-01T14:36:05.898Z,0.93
2022-08-01T14:38:46.890Z,0.70
2022-08-01T14:41:15.813Z,0.68
2022-08-01T14:43:44.654Z,0.70
2022-08-01T14:46:14.819Z,0.38
2022-08-01T14:48:43.896Z,0.60
2022-08-01T14:51:12.651Z,0.57
2022-08-01T14:53:44.211Z,0.50
2022-08-01T14:56:19.563Z,0.40
2022-08-01T14:58:48.610Z,0.20
2022-08-01T15:01:19.153Z,0.50
2022-08-01T15:03:49.021Z,0.20
2022-08-01T15:06:17.764Z,0.47
2022-08-01T15:08:46.577Z,0.57
2022-08-01T15:11:15.302Z,0.43
2022-08-01T15:13:43.917Z,0.60
2022-08-01T15:16:12.856Z,0.77
2022-08-01T15:18:43.221Z,0.50
2022-08-01T15:21:24.703Z,0.40
2022-08-01T15:24:00.564Z,0.20
2022-08-01T15:26:30.751Z,0.50
2022-08-01T15:28:59.619Z,0.30
2022-08-01T15:31:28.296Z,0.30
2022-08-01T15:33:59.287Z,0.35
2022-08-01T15:36:30.454Z,0.30
2022-08-01T15:39:00.690Z,0.55
2022-08-01T15:41:29.327Z,0.40
2022-08-01T15:43:57.956Z,0.30
2022-08-01T15:46:26.590Z,0.30
2022-08-01T15:48:55.293Z,0.30
2022-08-01T15:51:25.319Z,0.10
2022-08-01T15:53:53.901Z,0.20
2022-08-01T15:56:22.552Z,0.28
2022-08-01T15:58:51.353Z,0.20
2022-08-01T16:01:20.482Z,0.30
2022-08-01T16:03:49.289Z,0.20
2022-08-01T16:06:17.917Z,0.10
2022-08-01T16:08:47.905Z,0.30
2022-08-01T16:11:16.729Z,0.10
2022-08-01T16:13:45.772Z,0.10
2022-08-01T16:16:15.328Z,0.20
2022-08-01T16:18:44.095Z,0.30
2022-08-01T16:21:12.862Z,0.25
2022-08-01T16:23:41.743Z,0.20
2022-08-01T16:26:12.066Z,0.40
2022-08-01T16:28:56.326Z,0.40
2022-08-01T16:31:37.555Z,0.40
2022-08-01T16:34:15.141Z,0.30
2022-08-01T16:36:43.979Z,2.15
2022-08-01T16:39:12.609Z,0.40
2022-08-01T16:41:42.612Z,0.50
2022-08-01T16:44:11.219Z,0.38
2022-08-01T16:46:39.887Z,0.30
2022-08-01T16:49:08.567Z,0.40
2022-08-01T16:51:47.720Z,0.40
2022-08-01T16:54:25.596Z,0.50
2022-08-01T16:56:58.016Z,0.40
2022-08-01T16:59:41.503Z,0.30
2022-08-01T17:02:11.914Z,0.45
2022-08-01T17:04:40.611Z,0.50
2022-08-01T17:07:09.655Z,0.30
2022-08-01T17:09:42.921Z,0.28
2022-08-01T17:12:18.161Z,0.30
2022-08-01T17:14:51.421Z,0.35
2022-08-01T17:17:20.298Z,0.30
2022-08-01T17:19:49.303Z,0.30
2022-08-01T17:22:18.390Z,0.50
2022-08-01T17:24:47.360Z,0.60
2022-08-01T17:27:17.756Z,0.60
2022-08-01T17:29:46.647Z,0.40
2022-08-01T17:32:15.515Z,0.30
2022-08-01T17:34:44.686Z,0.35
2022-08-01T17:37:13.403Z,0.40
2022-08-01T17:39:42.949Z,0.40
2022-08-01T17:42:12.532Z,0.40
2022-08-01T17:44:46.067Z,0.30
2022-08-01T17:47:34.684Z,0.30
2022-08-01T17:50:08.778Z,0.30
2022-08-01T17:52:38.743Z,0.30
2022-08-01T17:55:55.723Z,0.30
2022-08-01T17:57:56.890Z,0.30
2022-08-01T18:00:26.860Z,0.40
2022-08-01T18:02:55.472Z,0.40
2022-08-01T18:05:36.767Z,0.43
2022-08-01T18:08:06.753Z,0.40
2022-08-01T18:10:39.788Z,0.43
2022-08-01T18:13:08.756Z,0.47
2022-08-01T18:15:38.967Z,0.28
2022-08-01T18:18:07.857Z,0.40
2022-08-01T18:20:37.065Z,0.55
2022-08-01T18:23:08.750Z,0.50
2022-08-01T18:25:37.381Z,0.40
2022-08-01T18:28:29.290Z,0.57
2022-08-01T18:30:57.119Z,0.40
2022-08-01T18:33:25.886Z,0.50
2022-08-01T18:35:54.500Z,0.60
2022-08-01T18:38:24.235Z,0.43
2022-08-01T18:40:53.141Z,0.70
2022-08-01T18:43:22.006Z,0.50
2022-08-01T18:45:50.683Z,0.30
2022-08-01T18:48:20.755Z,0.60
2022-08-01T18:50:49.351Z,0.50
2022-08-01T18:53:18.805Z,0.50
2022-08-01T18:55:47.494Z,0.60
2022-08-01T18:58:16.140Z,0.47
2022-08-01T19:00:44.735Z,0.60
2022-08-01T19:03:13.796Z,0.60
2022-08-01T19:05:44.330Z,0.40
2022-08-01T19:08:12.937Z,0.57
2022-08-01T19:10:42.881Z,0.73
2022-08-01T19:13:11.827Z,0.57
2022-08-01T19:15:40.440Z,0.60
2022-08-01T19:18:10.634Z,0.60
2022-08-01T19:20:42.620Z,0.60
2022-08-01T19:23:26.665Z,0.40
2022-08-01T19:25:59.803Z,0.50
2022-08-01T19:28:29.899Z,0.43
2022-08-01T19:31:02.350Z,0.38
2022-08-01T19:33:33.671Z,0.50
2022-08-01T19:36:02.692Z,0.30
2022-08-01T19:38:33.883Z,0.20
2022-08-01T19:41:04.068Z,0.50
2022-08-01T19:43:38.427Z,0.23
2022-08-01T19:46:08.375Z,0.50
2022-08-01T19:48:53.051Z,0.17
2022-08-01T19:51:33.456Z,0.20
2022-08-01T19:54:07.340Z,0.30
2022-08-01T19:56:40.614Z,0.30
2022-08-01T19:59:09.655Z,0.22
2022-08-01T20:01:38.428Z,0.30
2022-08-01T20:04:07.077Z,0.38
2022-08-01T20:06:35.950Z,0.30
2022-08-01T20:09:06.763Z,0.30
2022-08-01T20:11:36.125Z,0.37
2022-08-01T20:14:05.018Z,0.30
2022-08-01T20:16:34.005Z,0.30
2022-08-01T20:19:02.625Z,0.30
2022-08-01T20:21:32.006Z,0.30
2022-08-01T20:24:03.273Z,0.30
2022-08-01T20:26:34.256Z,0.25
2022-08-01T20:29:05.370Z,0.30
2022-08-01T20:31:44.100Z,0.30
2022-08-01T20:34:16.089Z,0.30
2022-08-01T20:36:54.379Z,0.35
2022-08-01T20:39:26.673Z,0.27
2022-08-01T20:41:59.908Z,0.30
2022-08-01T20:44:31.802Z,0.40
2022-08-01T20:47:02.258Z,0.32
2022-08-01T20:49:32.147Z,0.32
2022-08-01T20:52:02.062Z,0.20
2022-08-01T20:54:41.598Z,0.40
2022-08-01T20:57:20.447Z,0.40
2022-08-01T20:59:55.487Z,0.25
2022-08-01T21:02:35.131Z,0.30
2022-08-01T21:05:07.463Z,0.20
2022-08-01T21:07:40.308Z,0.20
2022-08-01T21:10:10.902Z,0.32
2022-08-01T21:12:49.945Z,0.30
2022-08-01T21:15:30.759Z,0.32
2022-08-01T21:18:04.448Z,0.32
2022-08-01T21:20:34.910Z,0.40
2022-08-01T21:23:15.483Z,0.40
2022-08-01T21:25:44.958Z,0.30
2022-08-01T21:28:16.408Z,0.30
2022-08-01T21:30:53.847Z,0.35
2022-08-01T21:33:25.700Z,0.40
2022-08-01T21:36:00.178Z,0.38
2022-08-01T21:38:33.779Z,0.30
2022-08-01T21:41:07.966Z,0.35
2022-08-01T21:43:39.062Z,0.30
2022-08-01T21:46:08.202Z,0.30
2022-08-01T21:48:38.563Z,0.45
2022-08-01T21:51:17.961Z,0.40
2022-08-01T21:53:51.423Z,0.30
2022-08-01T21:56:29.559Z,0.40
2022-08-01T21:59:10.221Z,0.40
2022-08-01T22:01:52.424Z,0.30
2022-08-01T22:04:25.600Z,0.30
2022-08-01T22:06:55.538Z,0.40
2022-08-01T22:09:24.617Z,0.20
2022-08-01T22:12:00.802Z,0.30
2022-08-01T22:14:33.725Z,0.50
2022-08-01T22:17:02.413Z,0.40
2022-08-01T22:19:44.114Z,0.40
2022-08-01T22:22:34.217Z,0.45
2022-08-01T22:25:03.085Z,0.30
2022-08-01T22:28:02.789Z,0.55
2022-08-01T22:30:23.783Z,0.45
2022-08-01T22:33:15.246Z,0.40
2022-08-01T22:35:47.355Z,0.40
2022-08-01T22:38:17.852Z,0.50
2022-08-01T22:40:51.135Z,0.40
2022-08-01T22:43:30.489Z,0.50
2022-08-01T22:46:16.787Z,0.40
2022-08-01T22:48:50.043Z,0.47
2022-08-01T22:51:28.089Z,0.40
2022-08-01T22:54:04.055Z,0.35
2022-08-01T22:56:37.783Z,0.30
2022-08-01T22:59:14.837Z,0.50
2022-08-01T23:01:50.473Z,0.40
2022-08-01T23:04:29.801Z,0.40
2022-08-01T23:07:06.280Z,0.57
2022-08-01T23:09:53.279Z,0.30
2022-08-01T23:12:28.053Z,0.30
2022-08-01T23:14:58.751Z,0.50
2022-08-01T23:17:30.816Z,0.40
2022-08-01T23:20:01.259Z,0.40
2022-08-01T23:22:32.271Z,0.40
2022-08-01T23:25:04.502Z,0.40
2022-08-01T23:28:03.847Z,0.30
2022-08-01T23:30:27.695Z,0.30
2022-08-01T23:32:58.069Z,0.40
2022-08-01T23:35:27.299Z,0.43
2022-08-01T23:38:02.251Z,0.40
2022-08-01T23:40:33.030Z,0.30
2022-08-01T23:43:02.954Z,0.33
2022-08-01T23:46:01.820Z,0.32
2022-08-01T23:48:21.958Z,0.40
2022-08-01T23:50:52.628Z,0.30
2022-08-01T23:53:21.234Z,0.40
2022-08-01T23:55:49.948Z,0.30
2022-08-01T23:58:18.803Z,0.30
